Syracuse Hancock International Airport
KSYR : now visible

Airfield :











YOU CAN JOIN US ON...

 
LOGIN :

Register | Disclaimer

   EN    FR    IT 

 









Legend :    VFR   Marginal VFR   IFR   Intensive IFR   Very Intensive IFR
Visi :
Ceiling :
>= 8 km
>= 3000ft
5 to 8 km
1000 to 3000 ft
1500m to 5 km
500 to 1000 ft
800 to 1500m
200 to 500 ft
< 800m
< 200 ft
Symbols :   Thunderstorms  Fog  Heavy snow  Heavy precipitations  Wind > 20 kt






- Airport Elevation : 421 ft
- IATA code : SYR


KSYR - Syracuse Hancock International

CURRENT METAR :
  • 282154Z 27010KT 10SM FEW008 BKN018 OVC030 03/01 A2997 RMK AO2 RAE28SNE28 SLP149 P0000 T00280006

EXPIRED METARs :
  • 282128Z 28008KT 10SM FEW008 BKN018 OVC030 03/01 A2996 RMK AO2 RAE28SNE28 P0000 T00280011
  • 282101Z 32005KT 7SM -RASN BKN009 OVC016 03/02 A2995 RMK AO2 P0000 T00280017
  • 282019Z 30010KT 10SM -RASN BKN013 BKN022 OVC038 03/01 A2992 RMK AO2 P0000 T00330011
  • 281954Z 30008KT 9SM -RASN SCT013 BKN020 OVC038 03/01 A2991 RMK AO2 DZE13RAB1856E03B49SNE13B38 SLP127 PCPN VRY LGT P0000 T00330011
  • 281940Z 29011KT 10SM -SN SCT013 BKN018 OVC038 03/01 A2990 RMK AO2 DZE13RAB1856E03SNE13B38 P0000 T00330011
  • 281930Z 30009KT 10SM SCT013 BKN017 OVC030 04/02 A2989 RMK AO2 DZE13RAB1856E03SNE13 P0000 T00390017

TAF KSYR
Valid from the 28 at 18:00 until the 29 at 18:00 UTC


281720Z 2818/2918 31009KT P6SM OVC015
FM290200 00000KT P6SM OVC020
FM291200 00000KT P6SM SCT035
KZBW FIR / North America



MET'MAP, your aeronautical weather chart ! - Copyright ORBIFLY December 2007 - Disclaimer

ORBIFLY MET'MAP TEAM :

Programming & Development : Alexandra Zaïnal
Original concept : Baudouin d'Aumeries
Technical & hardware support : Manuel Goepfert
Assistance : Marc-Olivier Méhu




SOURCES & CREDITS :

   NOAA       Earth
Advisory